sensor_id;sensor_type;location;lat;lon;timestamp;pressure;altitude;pressure_sealevel;temperature;humidity
45763;BME280;37512;52.408;13.356;2024-03-02T00:01:26;100068.97;;;8.24;100.00
45763;BME280;37512;52.408;13.356;2024-03-02T00:05:28;100069.78;;;8.24;100.00
45763;BME280;37512;52.408;13.356;2024-03-02T00:09:30;100067.19;;;8.16;100.00
45763;BME280;37512;52.408;13.356;2024-03-02T00:13:32;100062.44;;;8.03;100.00
45763;BME280;37512;52.408;13.356;2024-03-02T00:17:38;100068.03;;;7.85;100.00
45763;BME280;37512;52.408;13.356;2024-03-02T00:21:40;100054.44;;;7.72;100.00
45763;BME280;37512;52.408;13.356;2024-03-02T00:25:48;100051.75;;;8.03;100.00
45763;BME280;37512;52.408;13.356;2024-03-02T00:29:50;100051.41;;;7.83;100.00
45763;BME280;37512;52.408;13.356;2024-03-02T00:33:53;100051.22;;;8.08;100.00
45763;BME280;37512;52.408;13.356;2024-03-02T00:37:54;100040.19;;;8.11;100.00
45763;BME280;37512;52.408;13.356;2024-03-02T00:41:59;100047.72;;;8.07;100.00
45763;BME280;37512;52.408;13.356;2024-03-02T00:46:01;100050.56;;;7.83;100.00
45763;BME280;37512;52.408;13.356;2024-03-02T00:50:03;100049.34;;;8.16;100.00
45763;BME280;37512;52.408;13.356;2024-03-02T00:54:25;100049.19;;;8.33;100.00
45763;BME280;37512;52.408;13.356;2024-03-02T00:58:27;100044.19;;;8.38;100.00
45763;BME280;37512;52.408;13.356;2024-03-02T01:02:29;100047.53;;;8.32;100.00
45763;BME280;37512;52.408;13.356;2024-03-02T01:06:30;100038.88;;;8.30;100.00
45763;BME280;37512;52.408;13.356;2024-03-02T01:10:32;100035.19;;;8.31;100.00
45763;BME280;37512;52.408;13.356;2024-03-02T01:14:34;100042.03;;;8.33;100.00
45763;BME280;37512;52.408;13.356;2024-03-02T01:18:36;100033.00;;;8.11;100.00
45763;BME280;37512;52.408;13.356;2024-03-02T01:22:39;100035.56;;;8.28;100.00
45763;BME280;37512;52.408;13.356;2024-03-02T01:26:40;100042.91;;;8.34;100.00
45763;BME280;37512;52.408;13.356;2024-03-02T01:30:43;100040.44;;;8.24;100.00
45763;BME280;37512;52.408;13.356;2024-03-02T01:34:44;100030.91;;;7.76;100.00
45763;BME280;37512;52.408;13.356;2024-03-02T01:38:46;100023.31;;;8.19;100.00
45763;BME280;37512;52.408;13.356;2024-03-02T01:42:48;100015.09;;;7.74;100.00
45763;BME280;37512;52.408;13.356;2024-03-02T01:46:49;100012.50;;;7.89;100.00
45763;BME280;37512;52.408;13.356;2024-03-02T01:50:52;100007.88;;;7.83;100.00
45763;BME280;37512;52.408;13.356;2024-03-02T01:54:56;100011.16;;;8.16;100.00
45763;BME280;37512;52.408;13.356;2024-03-02T01:58:58;100006.94;;;8.22;100.00
45763;BME280;37512;52.408;13.356;2024-03-02T02:03:00;99997.25;;;8.21;100.00
45763;BME280;37512;52.408;13.356;2024-03-02T02:07:01;100004.06;;;7.77;100.00
45763;BME280;37512;52.408;13.356;2024-03-02T02:11:03;99988.59;;;7.73;100.00
45763;BME280;37512;52.408;13.356;2024-03-02T02:15:22;99991.72;;;7.84;100.00
45763;BME280;37512;52.408;13.356;2024-03-02T02:19:24;99992.09;;;7.73;100.00
45763;BME280;37512;52.408;13.356;2024-03-02T02:23:25;99986.97;;;7.41;100.00
45763;BME280;37512;52.408;13.356;2024-03-02T02:27:27;99994.75;;;7.50;100.00
45763;BME280;37512;52.408;13.356;2024-03-02T02:31:37;99994.13;;;7.71;100.00
45763;BME280;37512;52.408;13.356;2024-03-02T02:35:42;99988.97;;;7.70;100.00
45763;BME280;37512;52.408;13.356;2024-03-02T02:39:43;99993.28;;;7.71;100.00
45763;BME280;37512;52.408;13.356;2024-03-02T02:43:46;99986.13;;;7.94;100.00
45763;BME280;37512;52.408;13.356;2024-03-02T02:47:47;99991.22;;;8.04;100.00
45763;BME280;37512;52.408;13.356;2024-03-02T02:51:49;99997.97;;;8.14;100.00
45763;BME280;37512;52.408;13.356;2024-03-02T02:55:52;100006.47;;;8.18;100.00
45763;BME280;37512;52.408;13.356;2024-03-02T02:59:54;99997.00;;;8.30;100.00
45763;BME280;37512;52.408;13.356;2024-03-02T03:03:55;99998.75;;;8.23;100.00
45763;BME280;37512;52.408;13.356;2024-03-02T03:07:57;99998.25;;;8.42;100.00
45763;BME280;37512;52.408;13.356;2024-03-02T03:11:58;100002.78;;;8.42;100.00
45763;BME280;37512;52.408;13.356;2024-03-02T03:16:00;100000.31;;;8.32;100.00
45763;BME280;37512;52.408;13.356;2024-03-02T03:20:02;99993.28;;;8.39;100.00
45763;BME280;37512;52.408;13.356;2024-03-02T03:24:05;99992.00;;;8.35;100.00
45763;BME280;37512;52.408;13.356;2024-03-02T03:28:07;99997.19;;;8.52;100.00
45763;BME280;37512;52.408;13.356;2024-03-02T03:32:11;99983.34;;;8.48;100.00
45763;BME280;37512;52.408;13.356;2024-03-02T03:36:12;99987.63;;;8.57;100.00
45763;BME280;37512;52.408;13.356;2024-03-02T03:40:14;99996.47;;;8.58;100.00
45763;BME280;37512;52.408;13.356;2024-03-02T03:44:17;99985.50;;;8.67;100.00
45763;BME280;37512;52.408;13.356;2024-03-02T03:48:18;99997.09;;;8.60;100.00
45763;BME280;37512;52.408;13.356;2024-03-02T03:52:20;99990.75;;;8.61;100.00
45763;BME280;37512;52.408;13.356;2024-03-02T03:56:22;100001.06;;;8.64;100.00
45763;BME280;37512;52.408;13.356;2024-03-02T04:00:24;100001.03;;;8.49;100.00
45763;BME280;37512;52.408;13.356;2024-03-02T04:04:25;100004.47;;;8.58;100.00
45763;BME280;37512;52.408;13.356;2024-03-02T04:08:29;100001.53;;;8.53;100.00
45763;BME280;37512;52.408;13.356;2024-03-02T04:12:30;100002.53;;;8.52;100.00
45763;BME280;37512;52.408;13.356;2024-03-02T04:16:32;100016.72;;;8.52;100.00
45763;BME280;37512;52.408;13.356;2024-03-02T04:20:34;100020.44;;;8.43;100.00
45763;BME280;37512;52.408;13.356;2024-03-02T04:24:35;100007.88;;;8.52;100.00
45763;BME280;37512;52.408;13.356;2024-03-02T04:28:37;100003.69;;;8.49;100.00
45763;BME280;37512;52.408;13.356;2024-03-02T04:32:41;100002.16;;;8.32;100.00
45763;BME280;37512;52.408;13.356;2024-03-02T04:36:43;100011.97;;;8.39;100.00
45763;BME280;37512;52.408;13.356;2024-03-02T04:40:44;100014.88;;;8.53;100.00
45763;BME280;37512;52.408;13.356;2024-03-02T04:44:46;100016.91;;;8.51;100.00
45763;BME280;37512;52.408;13.356;2024-03-02T04:48:48;100025.16;;;8.33;100.00
45763;BME280;37512;52.408;13.356;2024-03-02T04:52:56;100033.16;;;8.41;100.00
45763;BME280;37512;52.408;13.356;2024-03-02T04:56:58;100035.56;;;8.28;100.00
45763;BME280;37512;52.408;13.356;2024-03-02T05:00:59;100048.69;;;8.37;100.00
45763;BME280;37512;52.408;13.356;2024-03-02T05:05:01;100047.91;;;8.29;100.00
45763;BME280;37512;52.408;13.356;2024-03-02T05:09:03;100050.31;;;8.15;100.00
45763;BME280;37512;52.408;13.356;2024-03-02T05:13:05;100060.66;;;8.19;100.00
45763;BME280;37512;52.408;13.356;2024-03-02T05:17:06;100060.41;;;8.05;100.00
45763;BME280;37512;52.408;13.356;2024-03-02T05:21:11;100067.69;;;8.11;100.00
45763;BME280;37512;52.408;13.356;2024-03-02T05:25:13;100072.34;;;8.18;100.00
45763;BME280;37512;52.408;13.356;2024-03-02T05:29:14;100064.38;;;8.32;100.00
45763;BME280;37512;52.408;13.356;2024-03-02T05:33:16;100068.31;;;8.22;100.00
45763;BME280;37512;52.408;13.356;2024-03-02T05:37:18;100067.75;;;8.26;100.00
45763;BME280;37512;52.408;13.356;2024-03-02T05:41:19;100069.72;;;8.09;100.00
45763;BME280;37512;52.408;13.356;2024-03-02T05:45:21;100083.41;;;8.06;100.00
45763;BME280;37512;52.408;13.356;2024-03-02T05:49:22;100080.22;;;8.11;100.00
45763;BME280;37512;52.408;13.356;2024-03-02T05:53:24;100093.34;;;7.90;100.00
45763;BME280;37512;52.408;13.356;2024-03-02T05:57:25;100082.81;;;7.65;100.00
45763;BME280;37512;52.408;13.356;2024-03-02T06:01:43;100090.06;;;7.79;100.00
45763;BME280;37512;52.408;13.356;2024-03-02T06:05:45;100094.25;;;7.82;100.00
45763;BME280;37512;52.408;13.356;2024-03-02T06:09:46;100092.69;;;7.88;100.00
45763;BME280;37512;52.408;13.356;2024-03-02T06:13:49;100089.41;;;7.77;100.00
45763;BME280;37512;52.408;13.356;2024-03-02T06:17:51;100096.81;;;7.67;100.00
45763;BME280;37512;52.408;13.356;2024-03-02T06:21:53;100097.56;;;7.84;100.00
45763;BME280;37512;52.408;13.356;2024-03-02T06:25:54;100097.66;;;7.99;100.00
45763;BME280;37512;52.408;13.356;2024-03-02T06:29:56;100089.28;;;7.71;100.00
45763;BME280;37512;52.408;13.356;2024-03-02T06:33:57;100095.50;;;7.94;100.00
45763;BME280;37512;52.408;13.356;2024-03-02T06:37:59;100094.53;;;7.87;100.00
45763;BME280;37512;52.408;13.356;2024-03-02T06:42:00;100100.72;;;7.79;100.00
45763;BME280;37512;52.408;13.356;2024-03-02T06:46:02;100102.06;;;7.83;100.00
45763;BME280;37512;52.408;13.356;2024-03-02T06:50:05;100119.47;;;7.63;100.00
45763;BME280;37512;52.408;13.356;2024-03-02T06:54:08;100121.03;;;7.89;100.00
45763;BME280;37512;52.408;13.356;2024-03-02T06:58:10;100110.56;;;7.79;100.00
45763;BME280;37512;52.408;13.356;2024-03-02T07:02:12;100111.97;;;7.98;100.00
45763;BME280;37512;52.408;13.356;2024-03-02T07:06:15;100120.66;;;8.00;100.00
45763;BME280;37512;52.408;13.356;2024-03-02T07:10:17;100124.19;;;8.23;100.00
45763;BME280;37512;52.408;13.356;2024-03-02T07:14:19;100122.88;;;7.88;100.00
45763;BME280;37512;52.408;13.356;2024-03-02T07:18:20;100118.81;;;8.00;100.00
45763;BME280;37512;52.408;13.356;2024-03-02T07:22:23;100126.66;;;8.25;100.00
45763;BME280;37512;52.408;13.356;2024-03-02T07:26:25;100130.34;;;8.24;100.00
45763;BME280;37512;52.408;13.356;2024-03-02T07:30:29;100137.28;;;8.33;100.00
45763;BME280;37512;52.408;13.356;2024-03-02T07:34:34;100143.41;;;8.19;100.00
45763;BME280;37512;52.408;13.356;2024-03-02T07:38:36;100148.84;;;8.25;100.00
45763;BME280;37512;52.408;13.356;2024-03-02T07:42:40;100160.81;;;8.37;100.00
45763;BME280;37512;52.408;13.356;2024-03-02T07:46:48;100162.66;;;8.29;100.00
45763;BME280;37512;52.408;13.356;2024-03-02T07:50:55;100175.34;;;8.35;100.00
45763;BME280;37512;52.408;13.356;2024-03-02T07:54:56;100173.88;;;8.55;100.00
45763;BME280;37512;52.408;13.356;2024-03-02T07:58:58;100187.94;;;8.49;100.00
45763;BME280;37512;52.408;13.356;2024-03-02T08:03:02;100193.97;;;8.43;100.00
45763;BME280;37512;52.408;13.356;2024-03-02T08:07:04;100185.03;;;8.59;100.00
45763;BME280;37512;52.408;13.356;2024-03-02T08:11:06;100191.94;;;8.76;100.00
45763;BME280;37512;52.408;13.356;2024-03-02T08:15:08;100186.75;;;8.52;100.00
45763;BME280;37512;52.408;13.356;2024-03-02T08:19:09;100192.28;;;8.73;100.00
45763;BME280;37512;52.408;13.356;2024-03-02T08:23:11;100195.53;;;8.83;100.00
45763;BME280;37512;52.408;13.356;2024-03-02T08:27:13;100197.88;;;9.01;100.00
45763;BME280;37512;52.408;13.356;2024-03-02T08:31:14;100202.06;;;8.81;100.00
45763;BME280;37512;52.408;13.356;2024-03-02T08:35:16;100205.00;;;8.71;100.00
45763;BME280;37512;52.408;13.356;2024-03-02T08:39:20;100194.53;;;8.84;100.00
45763;BME280;37512;52.408;13.356;2024-03-02T08:43:22;100198.63;;;8.72;100.00
45763;BME280;37512;52.408;13.356;2024-03-02T08:47:24;100201.81;;;8.67;100.00
45763;BME280;37512;52.408;13.356;2024-03-02T08:51:25;100199.47;;;8.72;100.00
45763;BME280;37512;52.408;13.356;2024-03-02T08:55:27;100218.56;;;8.84;100.00
45763;BME280;37512;52.408;13.356;2024-03-02T08:59:29;100216.22;;;8.89;100.00
45763;BME280;37512;52.408;13.356;2024-03-02T09:03:30;100226.56;;;8.84;100.00
45763;BME280;37512;52.408;13.356;2024-03-02T09:07:35;100223.69;;;8.71;100.00
45763;BME280;37512;52.408;13.356;2024-03-02T09:11:36;100227.28;;;8.78;100.00
45763;BME280;37512;52.408;13.356;2024-03-02T09:15:38;100237.50;;;8.74;100.00
45763;BME280;37512;52.408;13.356;2024-03-02T09:19:41;100235.59;;;8.83;100.00
45763;BME280;37512;52.408;13.356;2024-03-02T09:23:42;100231.28;;;9.05;100.00
45763;BME280;37512;52.408;13.356;2024-03-02T09:27:46;100238.03;;;9.16;100.00
45763;BME280;37512;52.408;13.356;2024-03-02T09:31:47;100243.41;;;9.30;100.00
45763;BME280;37512;52.408;13.356;2024-03-02T09:35:50;100232.88;;;9.14;100.00
45763;BME280;37512;52.408;13.356;2024-03-02T09:39:55;100239.53;;;8.95;100.00
45763;BME280;37512;52.408;13.356;2024-03-02T09:43:57;100231.66;;;9.17;100.00
45763;BME280;37512;52.408;13.356;2024-03-02T09:47:59;100226.81;;;9.35;100.00
45763;BME280;37512;52.408;13.356;2024-03-02T09:52:02;100229.66;;;9.56;100.00
45763;BME280;37512;52.408;13.356;2024-03-02T09:56:05;100224.88;;;9.29;100.00
45763;BME280;37512;52.408;13.356;2024-03-02T10:00:08;100229.06;;;9.46;100.00
45763;BME280;37512;52.408;13.356;2024-03-02T10:04:10;100235.47;;;9.75;100.00
45763;BME280;37512;52.408;13.356;2024-03-02T10:08:12;100240.44;;;9.78;100.00
45763;BME280;37512;52.408;13.356;2024-03-02T10:12:15;100232.63;;;9.76;100.00
45763;BME280;37512;52.408;13.356;2024-03-02T10:16:17;100240.72;;;9.83;100.00
45763;BME280;37512;52.408;13.356;2024-03-02T10:20:22;100240.47;;;10.07;100.00
45763;BME280;37512;52.408;13.356;2024-03-02T10:24:25;100239.34;;;9.87;100.00
45763;BME280;37512;52.408;13.356;2024-03-02T10:28:26;100236.84;;;10.00;100.00
45763;BME280;37512;52.408;13.356;2024-03-02T10:32:29;100229.91;;;10.06;100.00
45763;BME280;37512;52.408;13.356;2024-03-02T10:36:34;100237.13;;;10.35;100.00
45763;BME280;37512;52.408;13.356;2024-03-02T10:40:36;100226.25;;;10.21;100.00
45763;BME280;37512;52.408;13.356;2024-03-02T10:44:38;100234.06;;;10.38;100.00
45763;BME280;37512;52.408;13.356;2024-03-02T10:48:41;100226.34;;;10.85;100.00
45763;BME280;37512;52.408;13.356;2024-03-02T10:52:43;100219.59;;;11.11;97.92
45763;BME280;37512;52.408;13.356;2024-03-02T10:56:44;100223.69;;;11.35;95.57
45763;BME280;37512;52.408;13.356;2024-03-02T11:00:47;100228.91;;;11.43;94.31
45763;BME280;37512;52.408;13.356;2024-03-02T11:04:50;100222.31;;;12.01;92.31
45763;BME280;37512;52.408;13.356;2024-03-02T11:08:57;100223.50;;;12.33;87.53
45763;BME280;37512;52.408;13.356;2024-03-02T11:13:02;100231.06;;;12.23;87.52
45763;BME280;37512;52.408;13.356;2024-03-02T11:17:07;100217.03;;;12.28;86.46
45763;BME280;37512;52.408;13.356;2024-03-02T11:21:09;100211.03;;;12.19;81.77
45763;BME280;37512;52.408;13.356;2024-03-02T11:25:27;100208.88;;;12.56;81.80
45763;BME280;37512;52.408;13.356;2024-03-02T11:33:37;100212.63;;;12.07;84.17
45763;BME280;37512;52.408;13.356;2024-03-02T11:37:38;100212.44;;;12.76;82.59
45763;BME280;37512;52.408;13.356;2024-03-02T11:41:40;100219.00;;;12.54;81.48
45763;BME280;37512;52.408;13.356;2024-03-02T11:45:43;100218.44;;;12.78;80.47
45763;BME280;37512;52.408;13.356;2024-03-02T11:49:50;100217.84;;;13.16;78.80
45763;BME280;37512;52.408;13.356;2024-03-02T11:53:56;100213.34;;;13.23;76.67
45763;BME280;37512;52.408;13.356;2024-03-02T11:57:58;100215.78;;;13.64;74.26
45763;BME280;37512;52.408;13.356;2024-03-02T12:02:02;100216.84;;;13.63;74.72
45763;BME280;37512;52.408;13.356;2024-03-02T12:06:04;100216.44;;;13.33;76.42
45763;BME280;37512;52.408;13.356;2024-03-02T12:10:06;100222.25;;;13.56;74.43
45763;BME280;37512;52.408;13.356;2024-03-02T12:14:13;100213.94;;;13.18;74.59
45763;BME280;37512;52.408;13.356;2024-03-02T12:18:14;100214.75;;;12.92;78.08
45763;BME280;37512;52.408;13.356;2024-03-02T12:22:16;100210.03;;;13.27;77.04
45763;BME280;37512;52.408;13.356;2024-03-02T12:26:17;100203.34;;;12.77;77.41
45763;BME280;37512;52.408;13.356;2024-03-02T12:30:19;100198.25;;;13.28;76.25
45763;BME280;37512;52.408;13.356;2024-03-02T12:34:22;100208.50;;;12.79;81.93
45763;BME280;37512;52.408;13.356;2024-03-02T12:38:25;100195.72;;;12.94;77.21
45763;BME280;37512;52.408;13.356;2024-03-02T12:42:27;100194.28;;;13.11;74.51
45763;BME280;37512;52.408;13.356;2024-03-02T12:46:30;100195.69;;;12.81;76.10
45763;BME280;37512;52.408;13.356;2024-03-02T12:50:33;100197.97;;;12.97;76.41
45763;BME280;37512;52.408;13.356;2024-03-02T12:54:34;100203.13;;;12.72;79.20
45763;BME280;37512;52.408;13.356;2024-03-02T12:58:40;100197.34;;;13.74;72.51
45763;BME280;37512;52.408;13.356;2024-03-02T13:02:45;100198.56;;;14.36;69.20
45763;BME280;37512;52.408;13.356;2024-03-02T13:06:47;100202.56;;;14.72;66.66
45763;BME280;37512;52.408;13.356;2024-03-02T13:10:49;100196.38;;;14.65;67.09
45763;BME280;37512;52.408;13.356;2024-03-02T13:14:54;100193.25;;;14.99;63.68
45763;BME280;37512;52.408;13.356;2024-03-02T13:18:55;100184.84;;;14.06;64.46
45763;BME280;37512;52.408;13.356;2024-03-02T13:22:57;100183.94;;;14.26;63.60
45763;BME280;37512;52.408;13.356;2024-03-02T13:26:58;100177.28;;;14.22;64.39
45763;BME280;37512;52.408;13.356;2024-03-02T13:31:01;100172.78;;;14.60;62.73
45763;BME280;37512;52.408;13.356;2024-03-02T13:35:03;100169.28;;;15.09;59.39
45763;BME280;37512;52.408;13.356;2024-03-02T13:39:05;100177.91;;;15.00;59.71
45763;BME280;37512;52.408;13.356;2024-03-02T13:43:12;100180.84;;;15.42;58.49
45763;BME280;37512;52.408;13.356;2024-03-02T13:47:14;100186.28;;;15.17;59.54
45763;BME280;37512;52.408;13.356;2024-03-02T13:51:16;100175.09;;;15.13;59.11
45763;BME280;37512;52.408;13.356;2024-03-02T13:55:17;100176.06;;;15.44;57.64
45763;BME280;37512;52.408;13.356;2024-03-02T13:59:19;100174.53;;;15.04;58.23
45763;BME280;37512;52.408;13.356;2024-03-02T14:03:21;100178.69;;;14.44;60.53
45763;BME280;37512;52.408;13.356;2024-03-02T14:07:24;100172.97;;;14.90;59.27
45763;BME280;37512;52.408;13.356;2024-03-02T14:11:26;100183.47;;;14.73;60.66
45763;BME280;37512;52.408;13.356;2024-03-02T14:15:28;100181.78;;;14.34;60.60
45763;BME280;37512;52.408;13.356;2024-03-02T14:19:32;100186.75;;;14.37;61.92
45763;BME280;37512;52.408;13.356;2024-03-02T14:23:33;100186.13;;;14.48;58.97
45763;BME280;37512;52.408;13.356;2024-03-02T14:27:35;100185.75;;;14.32;60.34
45763;BME280;37512;52.408;13.356;2024-03-02T14:31:56;100182.97;;;14.07;62.49
45763;BME280;37512;52.408;13.356;2024-03-02T14:35:58;100178.31;;;13.76;63.81
45763;BME280;37512;52.408;13.356;2024-03-02T14:40:00;100179.31;;;13.81;62.84
45763;BME280;37512;52.408;13.356;2024-03-02T14:44:02;100183.16;;;14.05;61.71
45763;BME280;37512;52.408;13.356;2024-03-02T14:48:04;100176.81;;;14.44;60.38
45763;BME280;37512;52.408;13.356;2024-03-02T14:52:06;100179.19;;;14.14;60.80
45763;BME280;37512;52.408;13.356;2024-03-02T14:56:09;100177.53;;;14.13;61.70
45763;BME280;37512;52.408;13.356;2024-03-02T15:00:11;100171.81;;;14.80;60.04
45763;BME280;37512;52.408;13.356;2024-03-02T15:04:13;100160.03;;;15.24;58.59
45763;BME280;37512;52.408;13.356;2024-03-02T15:08:15;100162.69;;;15.05;58.53
45763;BME280;37512;52.408;13.356;2024-03-02T15:12:17;100163.34;;;15.26;57.50
45763;BME280;37512;52.408;13.356;2024-03-02T15:16:19;100158.50;;;15.09;58.36
45763;BME280;37512;52.408;13.356;2024-03-02T15:20:20;100158.06;;;15.81;57.13
45763;BME280;37512;52.408;13.356;2024-03-02T15:24:23;100158.22;;;15.67;56.58
45763;BME280;37512;52.408;13.356;2024-03-02T15:28:24;100161.72;;;15.43;58.78
45763;BME280;37512;52.408;13.356;2024-03-02T15:32:26;100146.88;;;15.09;60.84
45763;BME280;37512;52.408;13.356;2024-03-02T15:36:28;100161.66;;;14.75;62.48
45763;BME280;37512;52.408;13.356;2024-03-02T15:40:29;100150.63;;;14.52;62.96
45763;BME280;37512;52.408;13.356;2024-03-02T15:44:32;100157.31;;;14.36;64.28
45763;BME280;37512;52.408;13.356;2024-03-02T15:48:34;100166.72;;;14.20;64.64
45763;BME280;37512;52.408;13.356;2024-03-02T15:52:36;100159.66;;;13.74;66.60
45763;BME280;37512;52.408;13.356;2024-03-02T15:56:42;100159.66;;;13.68;66.02
45763;BME280;37512;52.408;13.356;2024-03-02T16:00:43;100166.53;;;13.50;66.57
45763;BME280;37512;52.408;13.356;2024-03-02T16:04:46;100167.81;;;13.28;67.84
45763;BME280;37512;52.408;13.356;2024-03-02T16:08:48;100167.00;;;13.27;67.67
45763;BME280;37512;52.408;13.356;2024-03-02T16:12:53;100175.03;;;12.88;70.45
45763;BME280;37512;52.408;13.356;2024-03-02T16:16:55;100168.00;;;13.13;69.89
45763;BME280;37512;52.408;13.356;2024-03-02T16:20:56;100178.75;;;13.07;70.28
45763;BME280;37512;52.408;13.356;2024-03-02T16:25:01;100188.66;;;12.80;72.04
45763;BME280;37512;52.408;13.356;2024-03-02T16:29:03;100178.94;;;12.79;72.42
45763;BME280;37512;52.408;13.356;2024-03-02T16:33:04;100184.28;;;12.52;74.36
45763;BME280;37512;52.408;13.356;2024-03-02T16:37:06;100181.16;;;12.49;74.75
45763;BME280;37512;52.408;13.356;2024-03-02T16:41:07;100179.69;;;12.33;76.41
45763;BME280;37512;52.408;13.356;2024-03-02T16:45:10;100180.81;;;12.11;78.51
45763;BME280;37512;52.408;13.356;2024-03-02T16:49:12;100181.50;;;12.19;78.05
45763;BME280;37512;52.408;13.356;2024-03-02T16:53:13;100192.59;;;11.75;82.21
45763;BME280;37512;52.408;13.356;2024-03-02T16:57:17;100184.94;;;11.44;84.68
45763;BME280;37512;52.408;13.356;2024-03-02T17:01:19;100180.63;;;11.77;82.18
45763;BME280;37512;52.408;13.356;2024-03-02T17:05:20;100178.84;;;11.57;85.23
45763;BME280;37512;52.408;13.356;2024-03-02T17:09:25;100192.34;;;11.70;83.56
45763;BME280;37512;52.408;13.356;2024-03-02T17:13:27;100198.38;;;11.44;84.93
45763;BME280;37512;52.408;13.356;2024-03-02T17:17:28;100208.28;;;11.43;85.21
45763;BME280;37512;52.408;13.356;2024-03-02T17:21:30;100211.41;;;11.47;85.83
45763;BME280;37512;52.408;13.356;2024-03-02T17:25:32;100222.66;;;11.36;86.47
45763;BME280;37512;52.408;13.356;2024-03-02T17:29:34;100221.16;;;11.05;88.99
45763;BME280;37512;52.408;13.356;2024-03-02T17:33:36;100226.09;;;11.02;89.97
45763;BME280;37512;52.408;13.356;2024-03-02T17:37:37;100219.03;;;10.94;90.59
45763;BME280;37512;52.408;13.356;2024-03-02T17:41:41;100225.69;;;10.62;93.75
45763;BME280;37512;52.408;13.356;2024-03-02T17:45:43;100224.81;;;10.76;92.63
45763;BME280;37512;52.408;13.356;2024-03-02T17:49:44;100223.72;;;10.71;92.95
45763;BME280;37512;52.408;13.356;2024-03-02T17:53:58;100226.66;;;10.76;92.81
45763;BME280;37512;52.408;13.356;2024-03-02T17:58:00;100233.44;;;10.57;94.72
45763;BME280;37512;52.408;13.356;2024-03-02T18:02:03;100240.22;;;10.53;96.14
45763;BME280;37512;52.408;13.356;2024-03-02T18:06:07;100246.25;;;10.40;96.46
45763;BME280;37512;52.408;13.356;2024-03-02T18:10:10;100244.16;;;10.21;97.60
45763;BME280;37512;52.408;13.356;2024-03-02T18:14:12;100253.19;;;10.35;99.17
45763;BME280;37512;52.408;13.356;2024-03-02T18:18:13;100247.00;;;10.05;100.00
45763;BME280;37512;52.408;13.356;2024-03-02T18:22:16;100249.84;;;10.18;100.00
45763;BME280;37512;52.408;13.356;2024-03-02T18:26:18;100247.66;;;10.07;100.00
45763;BME280;37512;52.408;13.356;2024-03-02T18:30:23;100249.50;;;10.21;100.00
45763;BME280;37512;52.408;13.356;2024-03-02T18:34:25;100246.53;;;10.16;100.00
45763;BME280;37512;52.408;13.356;2024-03-02T18:38:26;100246.63;;;10.22;100.00
45763;BME280;37512;52.408;13.356;2024-03-02T18:42:28;100239.13;;;10.18;100.00
45763;BME280;37512;52.408;13.356;2024-03-02T18:46:31;100237.03;;;10.43;99.01
45763;BME280;37512;52.408;13.356;2024-03-02T18:50:32;100235.38;;;10.12;100.00
45763;BME280;37512;52.408;13.356;2024-03-02T18:54:34;100235.00;;;10.01;100.00
45763;BME280;37512;52.408;13.356;2024-03-02T18:58:35;100220.41;;;10.03;100.00
45763;BME280;37512;52.408;13.356;2024-03-02T19:02:37;100225.69;;;9.82;100.00
45763;BME280;37512;52.408;13.356;2024-03-02T19:06:42;100227.06;;;10.07;100.00
45763;BME280;37512;52.408;13.356;2024-03-02T19:10:45;100223.31;;;9.72;100.00
45763;BME280;37512;52.408;13.356;2024-03-02T19:14:47;100224.78;;;9.75;100.00
45763;BME280;37512;52.408;13.356;2024-03-02T19:18:49;100219.41;;;9.60;100.00
45763;BME280;37512;52.408;13.356;2024-03-02T19:22:51;100216.84;;;9.81;100.00
45763;BME280;37512;52.408;13.356;2024-03-02T19:26:55;100218.13;;;9.56;100.00
45763;BME280;37512;52.408;13.356;2024-03-02T19:30:57;100221.72;;;9.63;100.00
45763;BME280;37512;52.408;13.356;2024-03-02T19:34:59;100214.41;;;9.72;100.00
45763;BME280;37512;52.408;13.356;2024-03-02T19:39:01;100216.53;;;10.06;100.00
45763;BME280;37512;52.408;13.356;2024-03-02T19:43:03;100209.50;;;10.05;100.00
45763;BME280;37512;52.408;13.356;2024-03-02T19:47:04;100205.22;;;9.74;100.00
45763;BME280;37512;52.408;13.356;2024-03-02T19:51:06;100204.75;;;9.56;100.00
45763;BME280;37512;52.408;13.356;2024-03-02T19:55:11;100203.44;;;9.52;100.00
45763;BME280;37512;52.408;13.356;2024-03-02T19:59:17;100191.53;;;9.25;100.00
45763;BME280;37512;52.408;13.356;2024-03-02T20:03:19;100202.13;;;9.33;100.00
45763;BME280;37512;52.408;13.356;2024-03-02T20:07:29;100190.53;;;9.70;100.00
45763;BME280;37512;52.408;13.356;2024-03-02T20:11:31;100190.00;;;9.60;100.00
45763;BME280;37512;52.408;13.356;2024-03-02T20:15:35;100189.50;;;9.27;100.00
45763;BME280;37512;52.408;13.356;2024-03-02T20:19:39;100184.91;;;9.50;100.00
45763;BME280;37512;52.408;13.356;2024-03-02T20:23:43;100187.94;;;9.47;100.00
45763;BME280;37512;52.408;13.356;2024-03-02T20:27:45;100191.38;;;9.56;100.00
45763;BME280;37512;52.408;13.356;2024-03-02T20:31:46;100195.31;;;9.45;100.00
45763;BME280;37512;52.408;13.356;2024-03-02T20:35:48;100183.81;;;9.59;100.00
45763;BME280;37512;52.408;13.356;2024-03-02T20:39:50;100184.53;;;9.53;100.00
45763;BME280;37512;52.408;13.356;2024-03-02T20:43:54;100174.94;;;9.44;100.00
45763;BME280;37512;52.408;13.356;2024-03-02T20:47:55;100175.84;;;9.36;100.00
45763;BME280;37512;52.408;13.356;2024-03-02T20:51:57;100185.28;;;9.62;100.00
45763;BME280;37512;52.408;13.356;2024-03-02T20:55:59;100176.50;;;9.68;100.00